aviador You're here:

LFRD Decoded Metar

DINARD in FRANCE
Report Time2018-02-21 04:30:00
UTC Time2018-02-21 05:01:38
Flight Rules vfr VFR
Wind040° at 10 kt
W.Decomp.*RWY 35: 6.2 kt HW 7.9 kt RCW
RWY 12: 2.1 kt HW 9.8 kt LCW
W.Rank040° ranks 23
Current wind is above 040° avg. (6.5)
Visibility9999 m
Phenomena:N/A
Clouds:Few 014 Hf
Overcast 040 Hf
Expected CloudBase > 800 ft AGL from Temp-Dew spread
Ceiling4,000 ft
Temp06°C (ISA -9)
Dew Point04°C (87% RH)
AAT1.1°C
QNH1022 hPa
Density Alt-1,040 ft
Elevation194 ft
Report Wrong Elevation
Raw Report
LFRD 210430Z AUTO 04010KT 010V070 9999 FEW014 OVC040 06/04 Q1022
NOSIG=

Extra information for LFRD:More info

Metar Taf Metar & Taf Last 4 Metars F.Rules Stats Wind Profile Meteogram Temp Stats Airport Information Weather charts Add Link Nearby VenuesMetar ALERT Operation Metar Decoded Social comments